Elcho, Wisconsin
Current Conditions -  °F | °C
As of 8:53 PM on Friday 21 Nov 2014 (Local Time) from KRHI Reporting Station
Clear Clear  
Wind Chill: -12°   Ceiling: Unl
Heat Index: -5°   Visibility: 10mi
Dew Point: -13°   Wind: 14mph
Humidity: 55%   Direction: 210°SSW
Pressure: 29.93"   Gusts: 28mph
Location:  45.44°N, 89.18°W
Report Text: KRHI 220253Z AUTO 21012G24KT 10SM CLR M05/M13 A2993 RMK AO2 SLP167 T10501128 58026
Loading
Personal Weather Stations






























Interactive Weather Map New forecast layout! Learn more

10-Day Weather Forecast

Advertisements
Track Severe Weather on mobile